Time;durP1;ratioP1;P1;durP2;ratioP2;P2;SDS_P1;SDS_P2;PMS_P1;PMS_P2;Temp;Humidity;BMP_temperature;BMP_pressure;BME280_temperature;BME280_humidity;BME280_pressure;Samples;Min_cycle;Max_cycle;Signal;HPM_P1;HPM_P2
2021/07/14 00:01:01;;;;;;;;;;;;;;;21.63;68.36;100931.69;5011654;28;1878;-69
2021/07/14 00:03:26;;;;;;;;;;;;;;;21.61;68.10;100937.28;5014309;28;1699;-69
2021/07/14 00:05:51;;;;;;;;;;;;;;;21.62;68.28;100946.28;4999668;28;1698;-68
2021/07/14 00:08:16;;;;;;;;;;;;;;;21.62;68.06;100943.56;4995127;28;1969;-67
2021/07/14 00:10:42;;;;;;;;;;;;;;;21.63;67.79;100947.97;5026496;28;1739;-68
2021/07/14 00:13:19;;;;;;;;;;;;;;;21.62;67.76;100948.97;5013596;28;1790;-69
2021/07/14 00:17:13;;;;;;;;;;;;;;;21.60;67.91;100938.31;5018785;28;799;-69
2021/07/14 00:24:02;;;;;;;;;;;;;;;21.59;68.44;100944.75;4999073;28;921;-69
2021/07/14 00:26:27;;;;;;;;;;;;;;;21.59;68.35;100930.31;4999333;28;791;-68
2021/07/14 00:28:52;;;;;;;;;;;;;;;21.60;68.52;100926.59;4998694;28;1953;-68
2021/07/14 00:31:17;;;;;;;;;;;;;;;21.59;68.26;100925.75;5013172;28;1703;-68
2021/07/14 00:33:42;;;;;;;;;;;;;;;21.60;67.97;100921.19;5033287;28;2427;-68
2021/07/14 00:36:08;;;;;;;;;;;;;;;21.60;68.64;100926.59;5018042;28;824;-68
2021/07/14 00:38:33;;;;;;;;;;;;;;;21.59;68.22;100927.63;5018003;28;772;-69
2021/07/14 00:40:58;;;;;;;;;;;;;;;21.58;67.70;100924.06;5016460;28;2051;-69
2021/07/14 00:43:23;;;;;;;;;;;;;;;21.57;68.40;100916.09;5018023;28;882;-69
2021/07/14 00:45:48;;;;;;;;;;;;;;;21.56;67.94;100915.25;5018150;28;908;-69
2021/07/14 00:48:14;;;;;;;;;;;;;;;21.57;68.20;100910.66;5017649;28;1901;-69
2021/07/14 00:50:39;;;;;;;;;;;;;;;21.57;68.13;100916.94;5018163;28;794;-69
2021/07/14 00:53:04;;;;;;;;;;;;;;;21.56;68.17;100920.66;5018055;28;1211;-69
2021/07/14 00:55:29;;;;;;;;;;;;;;;21.57;67.92;100911.50;5017708;28;982;-69
2021/07/14 00:57:54;;;;;;;;;;;;;;;21.54;67.82;100898.28;5032863;28;1227;-69
2021/07/14 01:00:19;;;;;;;;;;;;;;;21.55;67.96;100908.13;5003029;28;1679;-69
2021/07/14 01:02:44;;;;;;;;;;;;;;;21.55;67.92;100902.69;4998144;28;815;-69
2021/07/14 01:05:09;;;;;;;;;;;;;;;21.53;68.49;100902.00;4998174;28;911;-69
2021/07/14 01:07:35;;;;;;;;;;;;;;;21.53;67.76;100904.72;4998252;28;1967;-69
2021/07/14 01:10:00;;;;;;;;;;;;;;;21.53;68.01;100907.44;5011835;28;1609;-69
2021/07/14 01:12:25;;;;;;;;;;;;;;;21.52;68.08;100905.75;5017255;28;1757;-69
2021/07/14 01:14:50;;;;;;;;;;;;;;;21.52;67.42;100905.75;5017336;28;1829;-69
2021/07/14 01:17:15;;;;;;;;;;;;;;;21.52;67.69;100913.88;5017442;28;894;-68
2021/07/14 01:19:40;;;;;;;;;;;;;;;21.52;67.57;100908.44;5015637;28;1715;-68
2021/07/14 01:22:05;;;;;;;;;;;;;;;21.50;68.15;100913.19;5017814;28;938;-69
2021/07/14 01:24:30;;;;;;;;;;;;;;;21.51;67.83;100909.47;5016361;28;898;-68
2021/07/14 01:26:55;;;;;;;;;;;;;;;21.51;67.72;100901.31;5016454;28;1549;-69
2021/07/14 01:29:20;;;;;;;;;;;;;;;21.50;67.44;100905.06;5047374;28;1894;-69
2021/07/14 01:31:46;;;;;;;;;;;;;;;21.49;67.51;100908.81;5017310;28;1030;-69
2021/07/14 01:34:11;;;;;;;;;;;;;;;21.48;67.51;100907.97;5017265;28;768;-69
2021/07/14 01:36:36;;;;;;;;;;;;;;;21.50;67.75;100915.09;5032218;28;843;-68
2021/07/14 01:39:01;;;;;;;;;;;;;;;21.51;67.26;100922.16;5007776;28;1706;-68
2021/07/14 01:41:26;;;;;;;;;;;;;;;21.50;67.43;100925.94;5009794;28;1624;-69
2021/07/14 01:43:51;;;;;;;;;;;;;;;21.46;67.88;100923.56;5017400;28;865;-69
2021/07/14 01:46:16;;;;;;;;;;;;;;;21.48;67.79;100923.38;5015447;28;1743;-69
2021/07/14 01:48:41;;;;;;;;;;;;;;;21.48;67.63;100923.38;5017141;28;1957;-70
2021/07/14 01:51:06;;;;;;;;;;;;;;;21.48;67.83;100924.22;5016662;28;1125;-70
2021/07/14 01:53:31;;;;;;;;;;;;;;;21.48;68.03;100918.81;5016898;28;989;-69
2021/07/14 01:55:56;;;;;;;;;;;;;;;21.47;68.09;100910.84;5011463;28;1750;-69
2021/07/14 01:58:22;;;;;;;;;;;;;;;21.47;68.01;100908.97;4997560;28;1222;-69
2021/07/14 02:00:47;;;;;;;;;;;;;;;21.50;67.99;100917.78;4997314;28;1006;-69
2021/07/14 02:03:57;;;;;;;;;;;;;;;21.47;68.14;100908.13;4997369;28;898;-69
2021/07/14 02:06:00;;;;;;;;;;;;;;;21.46;67.59;100907.28;5001147;28;1738;-69
2021/07/14 02:08:25;;;;;;;;;;;;;;;21.45;67.73;100897.44;5016291;28;1981;-68
2021/07/14 02:10:50;;;;;;;;;;;;;;;21.44;68.03;100895.75;5016346;28;944;-68
2021/07/14 02:13:16;;;;;;;;;;;;;;;21.45;67.50;100902.03;5032175;28;990;-69
2021/07/14 02:15:41;;;;;;;;;;;;;;;21.46;67.42;100903.72;5014500;28;1755;-68
2021/07/14 02:18:06;;;;;;;;;;;;;;;21.44;68.23;100895.75;4996623;28;1006;-68
2021/07/14 02:20:31;;;;;;;;;;;;;;;21.43;67.42;100891.34;5014185;28;1865;-68
2021/07/14 02:22:56;;;;;;;;;;;;;;;21.44;67.67;100890.34;5016196;28;792;-68
2021/07/14 02:25:21;;;;;;;;;;;;;;;21.44;67.72;100894.91;5016469;28;1014;-69
2021/07/14 02:27:46;;;;;;;;;;;;;;;21.42;67.39;100891.50;5000080;28;1874;-69
2021/07/14 02:30:21;;;;;;;;;;;;;;;21.42;67.37;100896.94;4996267;28;969;-69
2021/07/14 02:32:46;;;;;;;;;;;;;;;21.43;67.35;100895.91;4997046;28;811;-69
2021/07/14 02:35:11;;;;;;;;;;;;;;;21.41;67.64;100884.38;4996499;28;934;-69
2021/07/14 02:37:36;;;;;;;;;;;;;;;21.41;68.21;100885.25;5046721;28;1747;-69
2021/07/14 02:40:01;;;;;;;;;;;;;;;21.41;67.33;100884.38;5016081;28;1013;-69
2021/07/14 02:42:29;;;;;;;;;;;;;;;21.41;67.81;100889.81;5015738;28;1014;-69
2021/07/14 02:44:54;;;;;;;;;;;;;;;21.41;67.52;100892.53;5016244;28;792;-69
2021/07/14 02:47:19;;;;;;;;;;;;;;;21.40;67.87;100901.66;5015057;28;1798;-69
2021/07/14 02:49:44;;;;;;;;;;;;;;;21.40;67.98;100898.97;5030757;28;1898;-69
2021/07/14 02:52:09;;;;;;;;;;;;;;;21.38;67.40;100890.16;5015712;28;1450;-69
2021/07/14 02:54:34;;;;;;;;;;;;;;;21.37;67.56;100881.16;5016346;28;861;-69
2021/07/14 02:57:01;;;;;;;;;;;;;;;21.38;67.52;100882.00;4999240;28;1749;-69
2021/07/14 02:59:26;;;;;;;;;;;;;;;21.37;67.62;100877.59;4995854;28;847;-69
2021/07/14 03:01:51;;;;;;;;;;;;;;;21.38;67.60;100876.59;4995835;28;772;-70
2021/07/14 03:04:16;;;;;;;;;;;;;;;21.38;67.60;100887.44;4996015;28;928;-69
2021/07/14 03:06:42;;;;;;;;;;;;;;;21.35;68.11;100882.34;5040494;28;1719;-69
2021/07/14 03:09:07;;;;;;;;;;;;;;;21.36;67.58;100875.91;5015253;28;1969;-69
2021/07/14 03:11:32;;;;;;;;;;;;;;;21.37;67.58;100873.03;5015462;28;886;-69
2021/07/14 03:13:57;;;;;;;;;;;;;;;21.37;67.50;100878.44;5015119;28;994;-69
2021/07/14 03:16:24;;;;;;;;;;;;;;;21.36;67.38;100884.03;5004335;28;1667;-68
2021/07/14 03:18:50;;;;;;;;;;;;;;;21.36;68.16;100882.19;4995885;28;776;-67
2021/07/14 03:21:15;;;;;;;;;;;;;;;21.36;67.68;100884.03;4995965;28;810;-68
2021/07/14 03:23:40;;;;;;;;;;;;;;;21.35;68.21;100875.06;5027150;28;1364;-70
2021/07/14 03:26:06;;;;;;;;;;;;;;;21.34;67.79;100873.38;5003874;28;1691;-68
2021/07/14 03:28:31;;;;;;;;;;;;;;;21.34;67.86;100867.94;5015600;28;1886;-68
2021/07/14 03:30:56;;;;;;;;;;;;;;;21.34;67.87;100864.38;5014942;28;819;-68
2021/07/14 03:33:21;;;;;;;;;;;;;;;21.34;68.11;100861.66;5015243;28;886;-68
2021/07/14 03:35:47;;;;;;;;;;;;;;;21.34;67.46;100861.66;5009462;28;1770;-68
2021/07/14 03:38:12;;;;;;;;;;;;;;;21.32;67.58;100863.69;4995289;28;875;-68
2021/07/14 03:40:37;;;;;;;;;;;;;;;21.33;67.98;100866.25;4995341;28;1069;-67
2021/07/14 03:43:02;;;;;;;;;;;;;;;21.34;67.77;100861.66;4995366;28;1002;-68
2021/07/14 03:45:27;;;;;;;;;;;;;;;21.33;67.57;100865.41;4995323;28;930;-68
2021/07/14 03:47:52;;;;;;;;;;;;;;;21.32;67.33;100869.13;5014828;28;1898;-69
2021/07/14 03:50:17;;;;;;;;;;;;;;;21.31;67.38;100867.47;5019036;28;1050;-68
2021/07/14 03:52:42;;;;;;;;;;;;;;;21.29;67.57;100874.91;5019307;28;1281;-68
2021/07/14 03:55:10;;;;;;;;;;;;;;;21.29;67.58;100867.63;5017055;28;1738;-68
2021/07/14 03:57:35;;;;;;;;;;;;;;;21.30;67.17;100873.88;5030564;28;1570;-68
2021/07/14 04:00:00;;;;;;;;;;;;;;;21.29;67.97;100870.34;4999141;28;938;-68
2021/07/14 04:02:25;;;;;;;;;;;;;;;21.30;68.33;100869.31;4999114;28;804;-69
2021/07/14 04:04:50;;;;;;;;;;;;;;;21.29;67.63;100859.50;5030683;28;1259;-68
2021/07/14 04:07:15;;;;;;;;;;;;;;;21.30;67.94;100860.34;5049759;28;1839;-69
2021/07/14 04:09:40;;;;;;;;;;;;;;;21.28;67.82;100865.06;5018854;28;1910;-68
2021/07/14 04:12:05;;;;;;;;;;;;;;;21.28;68.16;100865.06;5018578;28;1058;-68
2021/07/14 04:14:31;;;;;;;;;;;;;;;21.27;67.75;100866.94;5033903;28;1208;-68
2021/07/14 04:16:56;;;;;;;;;;;;;;;21.28;68.00;100867.78;5000070;28;1789;-69
2021/07/14 04:19:21;;;;;;;;;;;;;;;21.27;68.24;100856.09;4999356;28;1622;-69
2021/07/14 04:21:46;;;;;;;;;;;;;;;21.26;67.73;100862.53;4999076;28;843;-69
2021/07/14 04:24:11;;;;;;;;;;;;;;;21.28;67.85;100865.06;5006997;28;1699;-69
2021/07/14 04:26:36;;;;;;;;;;;;;;;21.27;67.93;100858.81;5018305;28;784;-68
2021/07/14 04:29:01;;;;;;;;;;;;;;;21.27;67.81;100866.94;5018792;28;1955;-68
2021/07/14 04:31:26;;;;;;;;;;;;;;;21.27;68.03;100860.66;5017936;28;1443;-69
2021/07/14 04:33:51;;;;;;;;;;;;;;;21.28;67.50;100865.06;5017772;28;1675;-68
2021/07/14 04:36:16;;;;;;;;;;;;;;;21.28;68.24;100865.06;5017969;28;1635;-69
2021/07/14 04:38:41;;;;;;;;;;;;;;;21.27;68.03;100863.38;5017988;28;1022;-70
2021/07/14 04:41:07;;;;;;;;;;;;;;;21.26;68.16;100870.66;5017925;28;1252;-70
2021/07/14 04:43:32;;;;;;;;;;;;;;;21.27;68.04;100868.81;5017541;28;1758;-70
2021/07/14 04:45:58;;;;;;;;;;;;;;;21.27;68.38;100868.81;5018021;28;921;-70
2021/07/14 04:48:23;;;;;;;;;;;;;;;21.31;67.61;100872.88;5018130;28;1898;-70
2021/07/14 04:50:48;;;;;;;;;;;;;;;21.36;68.26;100873.19;5017722;28;1560;-67
2021/07/14 04:53:13;;;;;;;;;;;;;;;21.41;69.18;100862.69;5017004;28;1859;-68
2021/07/14 04:55:39;;;;;;;;;;;;;;;21.40;69.22;100859.13;5017116;28;1974;-68
2021/07/14 04:58:04;;;;;;;;;;;;;;;21.38;70.57;100857.63;5017805;28;1990;-65
2021/07/14 05:00:29;;;;;;;;;;;;;;;21.34;70.68;100865.22;5016042;28;1761;-66
2021/07/14 05:02:54;;;;;;;;;;;;;;;21.36;69.99;100865.06;5015345;28;1797;-70
2021/07/14 05:05:19;;;;;;;;;;;;;;;21.38;69.67;100868.47;5017779;28;882;-67
2021/07/14 05:07:47;;;;;;;;;;;;;;;21.35;68.89;100868.78;5016676;28;1977;-68
2021/07/14 05:10:12;;;;;;;;;;;;;;;21.33;68.51;100870.81;5017259;28;1420;-67
2021/07/14 05:12:37;;;;;;;;;;;;;;;21.33;68.52;100859.97;5017308;28;1601;-67
2021/07/14 05:15:02;;;;;;;;;;;;;;;21.33;68.75;100863.53;5013157;28;1709;-68
2021/07/14 05:17:27;;;;;;;;;;;;;;;21.38;68.47;100865.75;5017940;28;1657;-68
2021/07/14 05:19:53;;;;;;;;;;;;;;;21.36;68.52;100870.47;5017708;28;1573;-68
2021/07/14 05:22:19;;;;;;;;;;;;;;;21.34;69.04;100864.38;5016725;28;1703;-68
2021/07/14 05:24:44;;;;;;;;;;;;;;;21.31;69.10;100871.00;5016640;28;1818;-67
2021/07/14 05:27:09;;;;;;;;;;;;;;;21.31;68.64;100868.31;5016974;28;1532;-67
2021/07/14 05:29:34;;;;;;;;;;;;;;;21.30;68.15;100865.75;5016961;28;1964;-67
2021/07/14 05:31:59;;;;;;;;;;;;;;;21.29;68.23;100873.03;5016758;28;1655;-67
2021/07/14 05:34:24;;;;;;;;;;;;;;;21.29;68.38;100873.03;5016361;28;1351;-67
2021/07/14 05:36:49;;;;;;;;;;;;;;;21.27;68.17;100879.66;5048457;28;1554;-66
2021/07/14 05:39:14;;;;;;;;;;;;;;;21.26;68.73;100872.53;5016444;28;1474;-66
2021/07/14 05:41:39;;;;;;;;;;;;;;;21.25;68.31;100877.09;5031076;28;1526;-66
2021/07/14 05:44:04;;;;;;;;;;;;;;;21.25;68.62;100887.09;5016009;28;1271;-67
2021/07/14 05:46:30;;;;;;;;;;;;;;;21.26;68.27;100888.78;5016204;28;1292;-66
2021/07/14 05:49:00;;;;;;;;;;;;;;;21.26;68.79;100888.78;5015722;28;1957;-67
2021/07/14 05:51:25;;;;;;;;;;;;;;;21.28;68.09;100903.03;5014400;28;1331;-66
2021/07/14 05:53:50;;;;;;;;;;;;;;;21.28;68.02;100889.47;5016083;28;1401;-66
2021/07/14 05:56:16;;;;;;;;;;;;;;;21.35;67.93;100896.75;5032487;28;1224;-67
2021/07/14 05:58:41;;;;;;;;;;;;;;;21.33;68.11;100904.19;5016810;28;870;-68
2021/07/14 06:01:06;;;;;;;;;;;;;;;21.29;68.03;100896.59;5017501;28;1533;-67
2021/07/14 06:03:31;;;;;;;;;;;;;;;21.23;68.09;100906.22;5016614;28;894;-67
2021/07/14 06:05:56;;;;;;;;;;;;;;;21.23;67.87;100917.06;5016501;28;1347;-69
2021/07/14 06:08:21;;;;;;;;;;;;;;;21.22;67.75;100912.66;5016375;28;1906;-68
2021/07/14 06:10:46;;;;;;;;;;;;;;;21.21;67.76;100921.81;5047691;28;1121;-68
2021/07/14 06:13:12;;;;;;;;;;;;;;;21.19;67.91;100915.66;5016189;28;961;-67
2021/07/14 06:15:37;;;;;;;;;;;;;;;21.19;68.59;100917.53;5048081;28;1476;-66
2021/07/14 06:18:02;;;;;;;;;;;;;;;21.18;68.51;100921.25;5016777;28;1053;-67
2021/07/14 06:20:27;;;;;;;;;;;;;;;21.18;68.45;100926.69;5016442;28;998;-67
2021/07/14 06:22:52;;;;;;;;;;;;;;;21.16;67.85;100929.56;5016093;28;815;-67
2021/07/14 06:25:17;;;;;;;;;;;;;;;21.15;67.75;100928.69;5016169;28;780;-68
2021/07/14 06:27:42;;;;;;;;;;;;;;;21.12;68.08;100923.63;5015974;28;1953;-67
2021/07/14 06:30:09;;;;;;;;;;;;;;;21.12;67.37;100934.47;5047669;28;1660;-67
2021/07/14 06:32:34;;;;;;;;;;;;;;;21.08;67.52;100926.84;5016245;28;779;-67
2021/07/14 06:34:59;;;;;;;;;;;;;;;21.08;67.85;100926.84;5047621;28;1654;-68
2021/07/14 06:37:24;;;;;;;;;;;;;;;21.08;67.65;100933.09;5015990;28;808;-67
2021/07/14 06:39:49;;;;;;;;;;;;;;;21.08;67.66;100932.25;5015840;28;1037;-68
2021/07/14 06:42:14;;;;;;;;;;;;;;;21.06;67.74;100931.56;5015042;28;1177;-67
2021/07/14 06:44:39;;;;;;;;;;;;;;;21.05;67.51;100928.00;5047015;28;1312;-67
2021/07/14 06:47:04;;;;;;;;;;;;;;;21.04;67.30;100926.31;5028830;28;1639;-67
2021/07/14 06:49:29;;;;;;;;;;;;;;;21.03;67.17;100930.03;5003721;28;1950;-68
2021/07/14 06:51:55;;;;;;;;;;;;;;;21.06;67.57;100918.88;5038177;28;1256;-67
2021/07/14 06:54:20;;;;;;;;;;;;;;;21.09;67.29;100918.53;5015098;28;1300;-67
2021/07/14 06:56:45;;;;;;;;;;;;;;;21.08;67.51;100919.56;5047226;28;1340;-68
2021/07/14 06:59:10;;;;;;;;;;;;;;;21.08;67.08;100924.97;5015292;28;890;-67
2021/07/14 07:01:35;;;;;;;;;;;;;;;21.06;67.25;100924.28;5015442;28;994;-67
2021/07/14 07:04:00;;;;;;;;;;;;;;;21.07;67.29;100925.13;5015595;28;1026;-68
2021/07/14 07:06:26;;;;;;;;;;;;;;;21.08;67.83;100927.69;5015333;28;835;-67
2021/07/14 07:08:51;;;;;;;;;;;;;;;21.06;67.09;100924.28;5015295;28;1918;-67
2021/07/14 07:11:16;;;;;;;;;;;;;;;21.09;67.45;100928.53;5015567;28;784;-68
2021/07/14 07:13:41;;;;;;;;;;;;;;;21.09;67.50;100926.69;5015220;28;864;-68
2021/07/14 07:16:06;;;;;;;;;;;;;;;21.07;67.32;100922.44;5015213;28;851;-67
2021/07/14 07:18:32;;;;;;;;;;;;;;;21.10;67.11;100913.97;5015555;28;870;-67
2021/07/14 07:20:57;;;;;;;;;;;;;;;21.11;67.64;100918.38;5015278;28;956;-67
2021/07/14 07:23:22;;;;;;;;;;;;;;;21.11;67.02;100921.09;5014282;28;898;-68
2021/07/14 07:25:47;;;;;;;;;;;;;;;21.11;67.10;100921.94;5015187;28;957;-68
2021/07/14 07:28:15;;;;;;;;;;;;;;;21.11;67.39;100927.38;5015030;28;1890;-67
2021/07/14 07:30:40;;;;;;;;;;;;;;;21.17;67.31;100930.41;5015014;28;1354;-67
2021/07/14 07:33:05;;;;;;;;;;;;;;;21.13;67.31;100928.03;5015210;28;795;-67
2021/07/14 07:35:30;;;;;;;;;;;;;;;21.14;67.12;100918.88;5015311;28;1006;-68
2021/07/14 07:37:55;;;;;;;;;;;;;;;21.15;67.52;100922.44;5015229;28;962;-67
2021/07/14 07:40:20;;;;;;;;;;;;;;;21.13;67.23;100930.75;5014969;28;815;-67
2021/07/14 07:42:46;;;;;;;;;;;;;;;21.15;66.96;100927.84;5014316;28;1430;-68
2021/07/14 07:45:11;;;;;;;;;;;;;;;21.15;67.01;100926.00;5014782;28;1351;-69
2021/07/14 07:47:36;;;;;;;;;;;;;;;21.14;67.29;100920.72;5014783;28;1961;-68
2021/07/14 07:50:01;;;;;;;;;;;;;;;21.15;66.85;100926.00;5014084;28;1356;-67
2021/07/14 07:52:26;;;;;;;;;;;;;;;21.14;67.14;100924.28;5015232;28;1359;-67
2021/07/14 07:54:51;;;;;;;;;;;;;;;21.13;67.24;100917.22;5046589;28;1387;-67
2021/07/14 07:57:17;;;;;;;;;;;;;;;21.13;66.73;100919.06;5015136;28;819;-67
2021/07/14 07:59:42;;;;;;;;;;;;;;;21.14;66.92;100920.72;5014716;28;910;-67
2021/07/14 08:02:07;;;;;;;;;;;;;;;21.17;67.40;100914.13;5014714;28;811;-66
2021/07/14 08:04:32;;;;;;;;;;;;;;;21.12;67.49;100922.78;5014765;28;803;-67
2021/07/14 08:06:57;;;;;;;;;;;;;;;21.11;66.98;100921.09;5014911;28;1118;-67
2021/07/14 08:09:22;;;;;;;;;;;;;;;21.17;67.19;100920.41;5014656;28;1965;-68
2021/07/14 08:11:47;;;;;;;;;;;;;;;21.19;66.90;100917.53;5015036;28;914;-68
2021/07/14 08:14:13;;;;;;;;;;;;;;;21.20;66.48;100919.25;5014725;28;850;-68
2021/07/14 08:16:38;;;;;;;;;;;;;;;21.18;67.42;100921.25;5014484;28;803;-68
2021/07/14 08:19:03;;;;;;;;;;;;;;;21.18;66.92;100922.09;5015166;28;926;-68
2021/07/14 08:21:28;;;;;;;;;;;;;;;21.19;67.09;100922.94;5014524;28;947;-68
2021/07/14 08:23:53;;;;;;;;;;;;;;;21.19;66.78;100925.66;5046369;28;1604;-68
2021/07/14 08:26:18;;;;;;;;;;;;;;;21.18;66.74;100922.09;5014509;28;760;-67
2021/07/14 08:28:43;;;;;;;;;;;;;;;21.19;67.17;100925.66;5014161;28;1899;-67
2021/07/14 08:31:08;;;;;;;;;;;;;;;21.20;67.07;100919.25;5014440;28;1229;-67
2021/07/14 08:33:34;;;;;;;;;;;;;;;21.19;67.03;100914.81;5018755;28;1445;-67
2021/07/14 08:35:59;;;;;;;;;;;;;;;21.15;67.43;100911.59;5018127;28;1443;-67
2021/07/14 08:38:25;;;;;;;;;;;;;;;21.18;67.03;100907.69;5018187;28;1488;-67
2021/07/14 08:40:50;;;;;;;;;;;;;;;21.15;66.71;100917.84;5034316;28;1398;-68
2021/07/14 08:43:15;;;;;;;;;;;;;;;21.16;67.40;100918.72;5056175;28;1146;-69
2021/07/14 08:45:40;;;;;;;;;;;;;;;21.17;66.61;100914.13;5029157;28;1276;-68
2021/07/14 08:48:05;;;;;;;;;;;;;;;21.13;66.94;100914.50;5019308;28;1897;-68
2021/07/14 08:50:30;;;;;;;;;;;;;;;21.14;67.36;100908.03;5020604;28;1561;-68
2021/07/14 08:52:55;;;;;;;;;;;;;;;21.12;67.41;100911.94;5029273;28;1254;-68
2021/07/14 08:55:21;;;;;;;;;;;;;;;21.07;67.92;100909.72;5029025;28;1205;-68
2021/07/14 08:57:46;;;;;;;;;;;;;;;21.05;67.55;100905.47;5022867;28;1258;-68
2021/07/14 09:00:11;;;;;;;;;;;;;;;21.10;67.66;100906.69;5065528;28;1427;-68
2021/07/14 09:02:36;;;;;;;;;;;;;;;21.17;67.20;100914.97;5051030;28;1317;-67
2021/07/14 09:05:01;;;;;;;;;;;;;;;21.16;67.45;100921.41;5021806;28;1313;-67
2021/07/14 09:07:26;;;;;;;;;;;;;;;21.15;67.28;100915.16;5022002;28;1555;-67
2021/07/14 09:09:51;;;;;;;;;;;;;;;21.15;67.07;100917.84;5032723;28;1972;-67
2021/07/14 09:12:16;;;;;;;;;;;;;;;21.10;67.87;100914.81;5020116;28;1388;-67
2021/07/14 09:14:42;;;;;;;;;;;;;;;21.15;67.27;100923.28;5031154;28;1350;-67
2021/07/14 09:17:07;;;;;;;;;;;;;;;21.13;67.07;100914.50;5021663;28;1403;-67
2021/07/14 09:19:32;;;;;;;;;;;;;;;21.10;67.38;100917.53;5021029;28;1572;-67
2021/07/14 09:21:57;;;;;;;;;;;;;;;21.08;67.78;100905.16;5016949;28;1365;-67
2021/07/14 09:24:22;;;;;;;;;;;;;;;21.06;68.03;100913.44;5017166;28;1262;-67
2021/07/14 09:26:47;;;;;;;;;;;;;;;21.06;68.36;100912.59;5033279;28;1301;-67
2021/07/14 09:29:12;;;;;;;;;;;;;;;21.08;67.72;100914.13;5020687;28;1910;-67
2021/07/14 09:31:37;;;;;;;;;;;;;;;21.06;67.90;100918.88;5045083;28;1427;-67
2021/07/14 09:34:02;;;;;;;;;;;;;;;21.06;67.80;100912.59;5027193;28;1283;-67
2021/07/14 09:36:27;;;;;;;;;;;;;;;21.08;68.22;100916.84;5038093;28;1330;-68
2021/07/14 09:38:52;;;;;;;;;;;;;;;21.07;68.16;100912.44;5033028;28;1265;-68
2021/07/14 09:41:18;;;;;;;;;;;;;;;21.02;67.98;100914.78;5020890;28;1357;-67
2021/07/14 09:43:43;;;;;;;;;;;;;;;21.06;67.82;100918.88;5029121;28;1268;-68
2021/07/14 09:46:08;;;;;;;;;;;;;;;21.08;68.28;100906.00;5031041;28;1383;-67
2021/07/14 09:48:33;;;;;;;;;;;;;;;21.11;67.83;100911.09;5020006;28;1944;-68
2021/07/14 09:50:58;;;;;;;;;;;;;;;21.15;68.02;100911.59;5017816;28;1374;-68
2021/07/14 09:53:24;;;;;;;;;;;;;;;21.14;67.51;100923.44;5032606;28;1520;-68
2021/07/14 09:55:49;;;;;;;;;;;;;;;21.12;67.92;100922.78;5054245;28;1290;-67
2021/07/14 09:58:14;;;;;;;;;;;;;;;21.13;67.41;100929.91;5026888;28;1269;-68
2021/07/14 10:00:39;;;;;;;;;;;;;;;21.13;68.25;100930.75;5061013;28;1349;-69
2021/07/14 10:03:04;;;;;;;;;;;;;;;21.12;68.28;100926.34;5019940;28;1220;-69
2021/07/14 10:05:29;;;;;;;;;;;;;;;21.10;67.79;100931.09;5032594;28;1481;-69
2021/07/14 10:07:54;;;;;;;;;;;;;;;21.09;67.94;100928.53;5022754;28;1910;-69
2021/07/14 10:10:19;;;;;;;;;;;;;;;21.09;68.67;100925.81;5025642;28;1338;-67
2021/07/14 10:12:46;;;;;;;;;;;;;;;21.09;68.41;100926.69;5028215;28;1377;-69
2021/07/14 10:15:11;;;;;;;;;;;;;;;21.03;68.70;100924.63;5036977;28;775;-69
2021/07/14 10:17:36;;;;;;;;;;;;;;;21.06;68.70;100924.28;5051982;28;1268;-68
2021/07/14 10:20:02;;;;;;;;;;;;;;;21.05;68.08;100922.59;5036805;28;874;-69
2021/07/14 10:22:27;;;;;;;;;;;;;;;21.06;68.63;100928.88;5036018;28;1017;-70
2021/07/14 10:24:52;;;;;;;;;;;;;;;21.05;68.38;100925.31;5051328;28;1207;-70
2021/07/14 10:27:17;;;;;;;;;;;;;;;21.05;68.24;100933.44;5035748;28;838;-69
2021/07/14 10:29:42;;;;;;;;;;;;;;;21.07;68.67;100933.28;5035734;28;1961;-69
2021/07/14 10:32:07;;;;;;;;;;;;;;;21.02;68.35;100928.34;5050545;28;1164;-69
2021/07/14 10:34:32;;;;;;;;;;;;;;;21.03;68.03;100937.31;5018011;28;1326;-69
2021/07/14 10:36:57;;;;;;;;;;;;;;;21.05;68.46;100941.56;5016167;28;1564;-69
2021/07/14 10:39:22;;;;;;;;;;;;;;;21.05;68.63;100943.41;5022517;28;1231;-68
2021/07/14 10:41:47;;;;;;;;;;;;;;;21.04;67.94;100934.44;5013119;28;1524;-68
2021/07/14 10:44:14;;;;;;;;;;;;;;;21.07;68.17;100931.41;5013535;28;2506;-68
2021/07/14 10:46:39;;;;;;;;;;;;;;;21.11;67.85;100942.78;5015426;28;1472;-70
2021/07/14 10:49:05;;;;;;;;;;;;;;;21.11;67.75;100938.19;5032909;28;1961;-69
2021/07/14 10:51:30;;;;;;;;;;;;;;;21.12;68.45;100944.47;5016460;28;1428;-68
2021/07/14 10:53:57;;;;;;;;;;;;;;;21.14;68.23;100932.41;5014377;28;1402;-69
2021/07/14 10:56:22;;;;;;;;;;;;;;;21.16;68.49;100940.38;5031225;28;1268;-69
2021/07/14 10:58:47;;;;;;;;;;;;;;;21.14;68.06;100940.56;5054457;28;1282;-69
2021/07/14 11:01:12;;;;;;;;;;;;;;;21.13;67.88;100925.34;5024254;28;1269;-71
2021/07/14 11:03:38;;;;;;;;;;;;;;;21.12;68.18;100923.63;5016749;28;1709;-71
2021/07/14 11:06:03;;;;;;;;;;;;;;;21.11;68.08;100924.66;5020935;28;1423;-70
2021/07/14 11:08:28;;;;;;;;;;;;;;;21.12;68.36;100923.63;5026623;28;1974;-70
2021/07/14 11:10:53;;;;;;;;;;;;;;;21.19;68.17;100933.78;5024615;28;1389;-70
2021/07/14 11:13:19;;;;;;;;;;;;;;;21.20;67.62;100935.53;5013927;28;1292;-69
2021/07/14 11:15:46;;;;;;;;;;;;;;;21.19;67.44;100940.06;5013724;28;1330;-69
2021/07/14 11:18:11;;;;;;;;;;;;;;;21.14;67.73;100935.13;5015378;28;986;-69
2021/07/14 11:20:36;;;;;;;;;;;;;;;21.14;68.33;100932.41;5015305;28;1069;-69
2021/07/14 11:23:01;;;;;;;;;;;;;;;21.16;68.38;100929.56;5015452;28;1015;-69
2021/07/14 11:25:26;;;;;;;;;;;;;;;21.19;67.83;100936.50;5013828;28;922;-70
2021/07/14 11:27:51;;;;;;;;;;;;;;;21.20;68.23;100930.09;5014963;28;1906;-70
2021/07/14 11:30:16;;;;;;;;;;;;;;;21.25;67.54;100938.59;5015004;28;898;-69
2021/07/14 11:32:41;;;;;;;;;;;;;;;21.28;67.41;100927.41;5013575;28;1072;-70
2021/07/14 11:35:06;;;;;;;;;;;;;;;21.27;67.78;100933.84;5015148;28;796;-70
2021/07/14 11:37:32;;;;;;;;;;;;;;;21.24;68.00;100921.47;5014884;28;820;-70
2021/07/14 11:39:57;;;;;;;;;;;;;;;21.25;68.08;100925.88;5014819;28;2947;-69
2021/07/14 11:42:22;;;;;;;;;;;;;;;21.23;68.20;100925.22;5046690;28;1547;-69
2021/07/14 11:44:47;;;;;;;;;;;;;;;21.20;68.16;100928.25;5047085;28;691;-69
2021/07/14 11:47:12;;;;;;;;;;;;;;;21.22;68.08;100922.66;5014545;28;1069;-69
2021/07/14 11:49:37;;;;;;;;;;;;;;;21.21;68.51;100919.09;5014643;28;1898;-69
2021/07/14 11:52:02;;;;;;;;;;;;;;;21.24;68.20;100928.75;5014709;28;1088;-69
2021/07/14 11:54:28;;;;;;;;;;;;;;;21.25;67.52;100923.19;5015380;28;1504;-69
2021/07/14 11:56:54;;;;;;;;;;;;;;;21.27;67.99;100923.88;5015051;28;775;-69
2021/07/14 11:59:19;;;;;;;;;;;;;;;21.28;67.63;100928.28;5014586;28;1598;-69
2021/07/14 12:01:44;;;;;;;;;;;;;;;21.27;68.04;100936.56;5014658;28;818;-69
2021/07/14 12:04:09;;;;;;;;;;;;;;;21.26;68.46;100933.00;5014807;28;787;-69
2021/07/14 12:06:37;;;;;;;;;;;;;;;21.29;68.33;100931.84;5014816;28;772;-69
2021/07/14 12:09:02;;;;;;;;;;;;;;;21.28;67.96;100922.00;5015806;28;1910;-69
2021/07/14 12:11:28;;;;;;;;;;;;;;;21.28;68.08;100924.72;5050713;28;1346;-68
2021/07/14 12:13:53;;;;;;;;;;;;;;;21.30;67.38;100919.97;5018540;28;998;-69
2021/07/14 12:16:18;;;;;;;;;;;;;;;21.28;67.84;100919.28;5018472;28;795;-69
2021/07/14 12:18:43;;;;;;;;;;;;;;;21.27;67.95;100923.00;5018790;28;918;-69
2021/07/14 12:21:08;;;;;;;;;;;;;;;21.27;68.26;100914.88;5018271;28;1013;-68
2021/07/14 12:23:33;;;;;;;;;;;;;;;21.26;68.14;100914.03;5018120;28;1329;-69
2021/07/14 12:25:58;;;;;;;;;;;;;;;21.30;67.77;100911.84;5032345;28;1276;-69
2021/07/14 12:28:24;;;;;;;;;;;;;;;21.33;67.97;100908.78;5038020;28;1890;-69
2021/07/14 12:30:49;;;;;;;;;;;;;;;21.38;67.94;100909.13;5037932;28;985;-69
2021/07/14 12:33:14;;;;;;;;;;;;;;;21.34;68.04;100905.91;5037904;28;831;-68
2021/07/14 12:35:43;;;;;;;;;;;;;;;21.30;68.31;100903.72;5038265;28;1045;-68
2021/07/14 12:38:08;;;;;;;;;;;;;;;21.28;68.21;100903.88;5036042;28;2840;-68
2021/07/14 12:40:33;;;;;;;;;;;;;;;21.33;67.91;100898.78;5018170;28;923;-69
2021/07/14 12:42:58;;;;;;;;;;;;;;;21.35;68.11;100904.88;5017946;28;856;-69
2021/07/14 12:45:23;;;;;;;;;;;;;;;21.36;67.95;100893.03;5032902;28;1335;-68